sensor_id;sensor_type;location;lat;lon;timestamp;pressure;altitude;pressure_sealevel;temperature;humidity
12963;BME280;6546;49.882;8.666;2023-04-10T00:00:27;100704.00;;;8.32;56.31
12963;BME280;6546;49.882;8.666;2023-04-10T00:02:58;100705.22;;;8.38;55.56
12963;BME280;6546;49.882;8.666;2023-04-10T00:05:25;100712.41;;;8.34;55.90
12963;BME280;6546;49.882;8.666;2023-04-10T00:07:51;100724.16;;;8.27;56.94
12963;BME280;6546;49.882;8.666;2023-04-10T00:10:18;100722.94;;;8.22;58.12
12963;BME280;6546;49.882;8.666;2023-04-10T00:12:45;100724.03;;;8.19;58.41
12963;BME280;6546;49.882;8.666;2023-04-10T00:15:13;100727.53;;;8.18;58.88
12963;BME280;6546;49.882;8.666;2023-04-10T00:17:40;100713.16;;;8.16;59.25
12963;BME280;6546;49.882;8.666;2023-04-10T00:20:07;100724.81;;;8.10;59.54
12963;BME280;6546;49.882;8.666;2023-04-10T00:22:34;100720.97;;;8.05;59.96
12963;BME280;6546;49.882;8.666;2023-04-10T00:25:00;100730.22;;;8.07;59.73
12963;BME280;6546;49.882;8.666;2023-04-10T00:27:27;100727.91;;;8.04;60.40
12963;BME280;6546;49.882;8.666;2023-04-10T00:29:54;100735.38;;;8.07;60.05
12963;BME280;6546;49.882;8.666;2023-04-10T00:32:22;100729.16;;;8.10;59.44
12963;BME280;6546;49.882;8.666;2023-04-10T00:34:48;100724.81;;;8.10;59.62
12963;BME280;6546;49.882;8.666;2023-04-10T00:37:15;100718.41;;;8.14;58.55
12963;BME280;6546;49.882;8.666;2023-04-10T00:39:41;100721.44;;;8.19;57.09
12963;BME280;6546;49.882;8.666;2023-04-10T00:42:08;100724.09;;;8.29;55.97
12963;BME280;6546;49.882;8.666;2023-04-10T00:44:35;100719.00;;;8.27;55.64
12963;BME280;6546;49.882;8.666;2023-04-10T00:47:02;100723.50;;;8.25;55.52
12963;BME280;6546;49.882;8.666;2023-04-10T00:49:30;100710.75;;;8.24;55.27
12963;BME280;6546;49.882;8.666;2023-04-10T00:51:57;100720.06;;;8.15;55.55
12963;BME280;6546;49.882;8.666;2023-04-10T00:54:23;100714.22;;;8.13;55.69
12963;BME280;6546;49.882;8.666;2023-04-10T00:56:50;100715.31;;;8.11;55.63
12963;BME280;6546;49.882;8.666;2023-04-10T00:59:17;100712.56;;;8.03;55.77
12963;BME280;6546;49.882;8.666;2023-04-10T01:01:44;100699.88;;;7.90;56.12
12963;BME280;6546;49.882;8.666;2023-04-10T01:04:11;100710.59;;;7.95;56.09
12963;BME280;6546;49.882;8.666;2023-04-10T01:06:52;100707.63;;;7.90;56.06
12963;BME280;6546;49.882;8.666;2023-04-10T01:09:30;100710.81;;;7.82;56.59
12963;BME280;6546;49.882;8.666;2023-04-10T01:12:05;100711.13;;;7.89;56.23
12963;BME280;6546;49.882;8.666;2023-04-10T01:14:39;100709.78;;;7.85;56.33
12963;BME280;6546;49.882;8.666;2023-04-10T01:17:12;100712.06;;;7.78;56.40
12963;BME280;6546;49.882;8.666;2023-04-10T01:19:56;100718.97;;;7.78;56.53
12963;BME280;6546;49.882;8.666;2023-04-10T01:22:28;100708.59;;;7.68;56.79
12963;BME280;6546;49.882;8.666;2023-04-10T01:25:09;100710.25;;;7.79;56.89
12963;BME280;6546;49.882;8.666;2023-04-10T01:27:52;100713.50;;;7.71;56.95
12963;BME280;6546;49.882;8.666;2023-04-10T01:30:29;100717.00;;;7.70;56.76
12963;BME280;6546;49.882;8.666;2023-04-10T01:32:58;100721.88;;;7.64;57.13
12963;BME280;6546;49.882;8.666;2023-04-10T01:35:26;100718.59;;;7.62;57.37
12963;BME280;6546;49.882;8.666;2023-04-10T01:37:55;100720.72;;;7.57;57.40
12963;BME280;6546;49.882;8.666;2023-04-10T01:40:23;100724.28;;;7.56;57.46
12963;BME280;6546;49.882;8.666;2023-04-10T01:42:52;100726.97;;;7.54;57.79
12963;BME280;6546;49.882;8.666;2023-04-10T01:45:22;100725.47;;;7.52;57.61
12963;BME280;6546;49.882;8.666;2023-04-10T01:47:53;100720.97;;;7.54;57.91
12963;BME280;6546;49.882;8.666;2023-04-10T01:50:20;100723.38;;;7.46;58.10
12963;BME280;6546;49.882;8.666;2023-04-10T01:52:49;100724.31;;;7.45;58.06
12963;BME280;6546;49.882;8.666;2023-04-10T01:55:18;100716.59;;;7.45;58.02
12963;BME280;6546;49.882;8.666;2023-04-10T01:57:45;100709.13;;;7.42;58.14
12963;BME280;6546;49.882;8.666;2023-04-10T02:00:16;100713.28;;;7.33;58.46
12963;BME280;6546;49.882;8.666;2023-04-10T02:02:43;100712.72;;;7.29;58.48
12963;BME280;6546;49.882;8.666;2023-04-10T02:05:11;100707.75;;;7.17;59.06
12963;BME280;6546;49.882;8.666;2023-04-10T02:07:41;100701.44;;;7.10;58.94
12963;BME280;6546;49.882;8.666;2023-04-10T02:10:12;100699.47;;;7.02;59.32
12963;BME280;6546;49.882;8.666;2023-04-10T02:12:47;100695.03;;;7.04;59.50
12963;BME280;6546;49.882;8.666;2023-04-10T02:15:19;100687.31;;;7.04;59.28
12963;BME280;6546;49.882;8.666;2023-04-10T02:17:47;100692.22;;;7.07;59.16
12963;BME280;6546;49.882;8.666;2023-04-10T02:20:16;100678.88;;;7.02;59.28
12963;BME280;6546;49.882;8.666;2023-04-10T02:22:43;100675.94;;;7.07;59.36
12963;BME280;6546;49.882;8.666;2023-04-10T02:25:13;100682.03;;;7.06;59.62
12963;BME280;6546;49.882;8.666;2023-04-10T02:27:40;100679.59;;;7.04;59.64
12963;BME280;6546;49.882;8.666;2023-04-10T02:30:07;100677.25;;;7.01;59.76
12963;BME280;6546;49.882;8.666;2023-04-10T02:32:34;100676.88;;;7.06;59.74
12963;BME280;6546;49.882;8.666;2023-04-10T02:35:01;100678.03;;;7.13;59.58
12963;BME280;6546;49.882;8.666;2023-04-10T02:37:29;100676.78;;;7.07;59.66
12963;BME280;6546;49.882;8.666;2023-04-10T02:39:57;100679.78;;;7.12;59.46
12963;BME280;6546;49.882;8.666;2023-04-10T02:42:24;100662.75;;;7.00;59.58
12963;BME280;6546;49.882;8.666;2023-04-10T02:44:51;100671.47;;;7.09;59.45
12963;BME280;6546;49.882;8.666;2023-04-10T02:47:18;100676.88;;;7.06;59.80
12963;BME280;6546;49.882;8.666;2023-04-10T02:49:44;100677.50;;;6.98;59.97
12963;BME280;6546;49.882;8.666;2023-04-10T02:52:12;100669.09;;;6.96;60.06
12963;BME280;6546;49.882;8.666;2023-04-10T02:54:40;100672.84;;;6.92;60.24
12963;BME280;6546;49.882;8.666;2023-04-10T02:57:06;100680.88;;;6.99;60.32
12963;BME280;6546;49.882;8.666;2023-04-10T02:59:33;100678.88;;;7.02;60.28
12963;BME280;6546;49.882;8.666;2023-04-10T03:02:00;100683.59;;;6.97;60.46
12963;BME280;6546;49.882;8.666;2023-04-10T03:04:26;100673.97;;;6.99;60.32
12963;BME280;6546;49.882;8.666;2023-04-10T03:06:53;100677.44;;;7.09;60.17
12963;BME280;6546;49.882;8.666;2023-04-10T03:09:20;100662.50;;;7.03;60.16
12963;BME280;6546;49.882;8.666;2023-04-10T03:11:48;100668.91;;;7.09;60.19
12963;BME280;6546;49.882;8.666;2023-04-10T03:14:16;100675.38;;;7.03;60.22
12963;BME280;6546;49.882;8.666;2023-04-10T03:16:42;100666.59;;;7.06;60.32
12963;BME280;6546;49.882;8.666;2023-04-10T03:19:09;100661.19;;;7.09;60.33
12963;BME280;6546;49.882;8.666;2023-04-10T03:21:37;100665.75;;;7.05;60.30
12963;BME280;6546;49.882;8.666;2023-04-10T03:24:03;100661.28;;;6.86;61.01
12963;BME280;6546;49.882;8.666;2023-04-10T03:26:30;100656.72;;;6.90;61.10
12963;BME280;6546;49.882;8.666;2023-04-10T03:28:58;100649.75;;;6.81;61.36
12963;BME280;6546;49.882;8.666;2023-04-10T03:31:25;100655.25;;;6.76;61.67
12963;BME280;6546;49.882;8.666;2023-04-10T03:33:51;100653.50;;;6.77;61.48
12963;BME280;6546;49.882;8.666;2023-04-10T03:36:18;100649.66;;;6.71;61.77
12963;BME280;6546;49.882;8.666;2023-04-10T03:38:44;100652.09;;;6.73;61.91
12963;BME280;6546;49.882;8.666;2023-04-10T03:41:11;100646.28;;;6.71;61.74
12963;BME280;6546;49.882;8.666;2023-04-10T03:43:40;100647.44;;;6.67;62.01
12963;BME280;6546;49.882;8.666;2023-04-10T03:46:08;100642.78;;;6.72;61.59
12963;BME280;6546;49.882;8.666;2023-04-10T03:48:35;100638.66;;;6.69;61.70
12963;BME280;6546;49.882;8.666;2023-04-10T03:51:02;100636.84;;;6.60;62.29
12963;BME280;6546;49.882;8.666;2023-04-10T03:53:28;100647.94;;;6.61;62.05
12963;BME280;6546;49.882;8.666;2023-04-10T03:56:04;100644.69;;;6.59;62.18
12963;BME280;6546;49.882;8.666;2023-04-10T03:58:31;100646.06;;;6.63;62.25
12963;BME280;6546;49.882;8.666;2023-04-10T04:00:58;100638.22;;;6.64;62.15
12963;BME280;6546;49.882;8.666;2023-04-10T04:03:26;100646.28;;;6.71;61.98
12963;BME280;6546;49.882;8.666;2023-04-10T04:05:53;100642.06;;;6.70;61.92
12963;BME280;6546;49.882;8.666;2023-04-10T04:08:19;100646.72;;;6.76;61.91
12963;BME280;6546;49.882;8.666;2023-04-10T04:10:48;100644.63;;;6.70;62.01
12963;BME280;6546;49.882;8.666;2023-04-10T04:13:17;100636.41;;;6.76;61.68
12963;BME280;6546;49.882;8.666;2023-04-10T04:15:44;100641.13;;;6.71;61.84
12963;BME280;6546;49.882;8.666;2023-04-10T04:18:12;100635.41;;;6.67;62.16
12963;BME280;6546;49.882;8.666;2023-04-10T04:20:40;100644.44;;;6.62;62.31
12963;BME280;6546;49.882;8.666;2023-04-10T04:23:06;100632.84;;;6.67;62.12
12963;BME280;6546;49.882;8.666;2023-04-10T04:25:33;100631.81;;;6.59;62.31
12963;BME280;6546;49.882;8.666;2023-04-10T04:27:59;100630.19;;;6.58;62.32
12963;BME280;6546;49.882;8.666;2023-04-10T04:30:26;100640.50;;;6.47;62.55
12963;BME280;6546;49.882;8.666;2023-04-10T04:32:52;100641.06;;;6.50;62.55
12963;BME280;6546;49.882;8.666;2023-04-10T04:35:20;100639.22;;;6.41;62.85
12963;BME280;6546;49.882;8.666;2023-04-10T04:37:48;100645.88;;;6.44;62.87
12963;BME280;6546;49.882;8.666;2023-04-10T04:40:14;100645.19;;;6.42;62.98
12963;BME280;6546;49.882;8.666;2023-04-10T04:42:41;100644.28;;;6.43;62.74
12963;BME280;6546;49.882;8.666;2023-04-10T04:45:13;100646.03;;;6.31;63.54
12963;BME280;6546;49.882;8.666;2023-04-10T04:47:41;100649.09;;;6.36;63.20
12963;BME280;6546;49.882;8.666;2023-04-10T04:50:08;100651.75;;;6.34;63.31
12963;BME280;6546;49.882;8.666;2023-04-10T04:52:35;100647.91;;;6.29;63.54
12963;BME280;6546;49.882;8.666;2023-04-10T04:55:03;100651.19;;;6.31;63.43
12963;BME280;6546;49.882;8.666;2023-04-10T04:57:30;100651.06;;;6.32;63.44
12963;BME280;6546;49.882;8.666;2023-04-10T04:59:56;100657.38;;;6.40;63.15
12963;BME280;6546;49.882;8.666;2023-04-10T05:02:23;100657.47;;;6.38;63.55
12963;BME280;6546;49.882;8.666;2023-04-10T05:04:50;100651.28;;;6.41;63.12
12963;BME280;6546;49.882;8.666;2023-04-10T05:07:16;100650.00;;;6.35;63.67
12963;BME280;6546;49.882;8.666;2023-04-10T05:09:43;100651.28;;;6.41;63.24
12963;BME280;6546;49.882;8.666;2023-04-10T05:12:11;100647.22;;;6.27;63.82
12963;BME280;6546;49.882;8.666;2023-04-10T05:14:38;100649.31;;;6.33;63.81
12963;BME280;6546;49.882;8.666;2023-04-10T05:17:04;100644.53;;;6.28;63.98
12963;BME280;6546;49.882;8.666;2023-04-10T05:19:31;100645.69;;;6.24;64.03
12963;BME280;6546;49.882;8.666;2023-04-10T05:21:57;100651.09;;;6.21;64.11
12963;BME280;6546;49.882;8.666;2023-04-10T05:24:24;100652.00;;;6.20;64.28
12963;BME280;6546;49.882;8.666;2023-04-10T05:26:51;100654.59;;;6.20;64.52
12963;BME280;6546;49.882;8.666;2023-04-10T05:29:18;100661.13;;;6.24;64.21
12963;BME280;6546;49.882;8.666;2023-04-10T05:31:45;100653.06;;;6.18;64.53
12963;BME280;6546;49.882;8.666;2023-04-10T05:34:12;100657.28;;;6.19;64.65
12963;BME280;6546;49.882;8.666;2023-04-10T05:36:38;100661.13;;;6.24;64.25
12963;BME280;6546;49.882;8.666;2023-04-10T05:39:05;100654.47;;;6.22;64.54
12963;BME280;6546;49.882;8.666;2023-04-10T05:41:31;100653.78;;;6.20;64.38
12963;BME280;6546;49.882;8.666;2023-04-10T05:43:58;100663.00;;;6.22;64.46
12963;BME280;6546;49.882;8.666;2023-04-10T05:46:26;100661.84;;;6.15;64.66
12963;BME280;6546;49.882;8.666;2023-04-10T05:48:52;100661.38;;;6.21;64.39
12963;BME280;6546;49.882;8.666;2023-04-10T05:51:19;100664.50;;;6.36;63.89
12963;BME280;6546;49.882;8.666;2023-04-10T05:53:45;100666.94;;;6.38;63.95
12963;BME280;6546;49.882;8.666;2023-04-10T05:56:12;100669.03;;;6.44;63.62
12963;BME280;6546;49.882;8.666;2023-04-10T05:58:38;100670.22;;;6.40;63.93
12963;BME280;6546;49.882;8.666;2023-04-10T06:01:05;100666.69;;;6.41;63.81
12963;BME280;6546;49.882;8.666;2023-04-10T06:03:33;100671.94;;;6.50;63.84
12963;BME280;6546;49.882;8.666;2023-04-10T06:06:00;100670.16;;;6.62;63.54
12963;BME280;6546;49.882;8.666;2023-04-10T06:08:27;100668.16;;;6.65;63.48
12963;BME280;6546;49.882;8.666;2023-04-10T06:10:54;100664.03;;;6.74;63.11
12963;BME280;6546;49.882;8.666;2023-04-10T06:13:21;100670.34;;;6.70;63.44
12963;BME280;6546;49.882;8.666;2023-04-10T06:15:48;100660.53;;;6.75;63.20
12963;BME280;6546;49.882;8.666;2023-04-10T06:18:15;100668.69;;;6.80;63.36
12963;BME280;6546;49.882;8.666;2023-04-10T06:20:42;100642.84;;;6.81;63.12
12963;BME280;6546;49.882;8.666;2023-04-10T06:23:09;100658.34;;;7.12;62.42
12963;BME280;6546;49.882;8.666;2023-04-10T06:25:37;100656.03;;;7.29;61.74
12963;BME280;6546;49.882;8.666;2023-04-10T06:28:04;100651.56;;;7.52;61.40
12963;BME280;6546;49.882;8.666;2023-04-10T06:30:30;100648.00;;;7.74;60.39
12963;BME280;6546;49.882;8.666;2023-04-10T06:32:58;100644.16;;;8.08;59.64
12963;BME280;6546;49.882;8.666;2023-04-10T06:35:25;100633.00;;;8.48;58.24
12963;BME280;6546;49.882;8.666;2023-04-10T06:37:53;100647.41;;;8.98;56.96
12963;BME280;6546;49.882;8.666;2023-04-10T06:40:20;100642.47;;;9.24;55.66
12963;BME280;6546;49.882;8.666;2023-04-10T06:42:46;100636.03;;;9.37;55.47
12963;BME280;6546;49.882;8.666;2023-04-10T06:45:13;100636.53;;;9.50;55.19
12963;BME280;6546;49.882;8.666;2023-04-10T06:47:39;100635.94;;;9.66;55.50
12963;BME280;6546;49.882;8.666;2023-04-10T06:50:06;100639.41;;;9.84;54.12
12963;BME280;6546;49.882;8.666;2023-04-10T06:52:33;100636.97;;;9.83;53.82
12963;BME280;6546;49.882;8.666;2023-04-10T06:55:01;100641.66;;;9.97;53.72
12963;BME280;6546;49.882;8.666;2023-04-10T06:57:28;100628.72;;;9.70;54.04
12963;BME280;6546;49.882;8.666;2023-04-10T06:59:54;100647.16;;;9.47;55.06
12963;BME280;6546;49.882;8.666;2023-04-10T07:02:21;100639.59;;;9.36;55.80
12963;BME280;6546;49.882;8.666;2023-04-10T07:04:48;100645.28;;;9.49;56.08
12963;BME280;6546;49.882;8.666;2023-04-10T07:07:14;100641.31;;;9.55;56.01
12963;BME280;6546;49.882;8.666;2023-04-10T07:09:43;100631.88;;;9.64;55.76
12963;BME280;6546;49.882;8.666;2023-04-10T07:12:11;100630.34;;;9.71;55.34
12963;BME280;6546;49.882;8.666;2023-04-10T07:14:38;100630.22;;;9.72;55.52
12963;BME280;6546;49.882;8.666;2023-04-10T07:17:04;100634.13;;;9.76;55.24
12963;BME280;6546;49.882;8.666;2023-04-10T07:19:31;100629.78;;;9.77;55.23
12963;BME280;6546;49.882;8.666;2023-04-10T07:21:58;100633.72;;;9.81;55.74
12963;BME280;6546;49.882;8.666;2023-04-10T07:24:25;100630.78;;;9.93;55.74
12963;BME280;6546;49.882;8.666;2023-04-10T07:26:52;100633.09;;;9.96;55.48
12963;BME280;6546;49.882;8.666;2023-04-10T07:29:20;100630.31;;;10.08;54.99
12963;BME280;6546;49.882;8.666;2023-04-10T07:31:47;100618.09;;;10.00;55.21
12963;BME280;6546;49.882;8.666;2023-04-10T07:34:13;100623.34;;;10.18;54.76
12963;BME280;6546;49.882;8.666;2023-04-10T07:36:40;100625.72;;;10.29;54.34
12963;BME280;6546;49.882;8.666;2023-04-10T07:39:06;100621.66;;;10.26;54.59
12963;BME280;6546;49.882;8.666;2023-04-10T07:41:33;100613.59;;;10.29;54.65
12963;BME280;6546;49.882;8.666;2023-04-10T07:44:00;100627.88;;;10.33;54.25
12963;BME280;6546;49.882;8.666;2023-04-10T07:46:28;100616.84;;;10.31;54.18
12963;BME280;6546;49.882;8.666;2023-04-10T07:48:54;100621.72;;;10.34;54.50
12963;BME280;6546;49.882;8.666;2023-04-10T07:51:21;100614.88;;;10.43;54.31
12963;BME280;6546;49.882;8.666;2023-04-10T07:53:48;100614.78;;;10.52;54.48
12963;BME280;6546;49.882;8.666;2023-04-10T07:56:15;100621.66;;;10.62;54.01
12963;BME280;6546;49.882;8.666;2023-04-10T07:58:42;100617.81;;;10.66;53.91
12963;BME280;6546;49.882;8.666;2023-04-10T08:01:09;100622.91;;;10.75;53.69
12963;BME280;6546;49.882;8.666;2023-04-10T08:03:41;100616.38;;;10.89;53.38
12963;BME280;6546;49.882;8.666;2023-04-10T08:06:08;100615.28;;;10.91;53.75
12963;BME280;6546;49.882;8.666;2023-04-10T08:08:35;100620.56;;;11.07;53.59
12963;BME280;6546;49.882;8.666;2023-04-10T08:11:05;100608.34;;;11.18;52.83
12963;BME280;6546;49.882;8.666;2023-04-10T08:13:32;100596.97;;;11.19;52.84
12963;BME280;6546;49.882;8.666;2023-04-10T08:15:59;100598.66;;;11.28;52.73
12963;BME280;6546;49.882;8.666;2023-04-10T08:18:26;100598.41;;;11.39;52.25
12963;BME280;6546;49.882;8.666;2023-04-10T08:20:54;100600.22;;;11.46;52.39
12963;BME280;6546;49.882;8.666;2023-04-10T08:23:28;100595.34;;;11.43;52.48
12963;BME280;6546;49.882;8.666;2023-04-10T08:25:55;100593.78;;;11.58;51.90
12963;BME280;6546;49.882;8.666;2023-04-10T08:28:24;100589.63;;;11.66;51.88
12963;BME280;6546;49.882;8.666;2023-04-10T08:30:52;100589.03;;;11.72;51.75
12963;BME280;6546;49.882;8.666;2023-04-10T08:33:18;100578.53;;;11.81;51.14
12963;BME280;6546;49.882;8.666;2023-04-10T08:35:46;100579.34;;;11.82;51.44
12963;BME280;6546;49.882;8.666;2023-04-10T08:38:14;100573.84;;;11.93;50.03
12963;BME280;6546;49.882;8.666;2023-04-10T08:40:41;100573.88;;;12.01;50.01
12963;BME280;6546;49.882;8.666;2023-04-10T08:43:08;100572.59;;;12.05;49.48
12963;BME280;6546;49.882;8.666;2023-04-10T08:45:35;100571.44;;;12.16;49.50
12963;BME280;6546;49.882;8.666;2023-04-10T08:48:04;100565.00;;;12.28;48.49
12963;BME280;6546;49.882;8.666;2023-04-10T08:50:33;100556.06;;;12.38;47.93
12963;BME280;6546;49.882;8.666;2023-04-10T08:53:04;100552.84;;;12.52;48.08
12963;BME280;6546;49.882;8.666;2023-04-10T08:55:34;100545.69;;;12.54;47.75
12963;BME280;6546;49.882;8.666;2023-04-10T08:58:10;100542.75;;;12.66;47.90
12963;BME280;6546;49.882;8.666;2023-04-10T09:00:38;100546.50;;;12.71;47.30
12963;BME280;6546;49.882;8.666;2023-04-10T09:03:07;100539.31;;;12.89;46.39
12963;BME280;6546;49.882;8.666;2023-04-10T09:05:36;100553.91;;;13.06;45.75
12963;BME280;6546;49.882;8.666;2023-04-10T09:08:03;100547.44;;;13.10;44.71
12963;BME280;6546;49.882;8.666;2023-04-10T09:10:30;100537.84;;;13.11;44.70
12963;BME280;6546;49.882;8.666;2023-04-10T09:12:58;100527.75;;;13.16;45.48
12963;BME280;6546;49.882;8.666;2023-04-10T09:15:24;100520.28;;;13.21;44.50
12963;BME280;6546;49.882;8.666;2023-04-10T09:17:57;100519.22;;;13.38;43.93
12963;BME280;6546;49.882;8.666;2023-04-10T09:20:25;100514.97;;;13.45;43.37
12963;BME280;6546;49.882;8.666;2023-04-10T09:22:58;100502.59;;;13.47;43.69
12963;BME280;6546;49.882;8.666;2023-04-10T09:25:29;100498.66;;;13.51;43.83
12963;BME280;6546;49.882;8.666;2023-04-10T09:28:03;100493.72;;;13.64;44.21
12963;BME280;6546;49.882;8.666;2023-04-10T09:30:35;100489.69;;;13.85;42.53
12963;BME280;6546;49.882;8.666;2023-04-10T09:33:20;100486.91;;;14.09;40.04
12963;BME280;6546;49.882;8.666;2023-04-10T09:35:47;100488.16;;;14.21;38.09
12963;BME280;6546;49.882;8.666;2023-04-10T09:38:14;100478.97;;;14.33;37.68
12963;BME280;6546;49.882;8.666;2023-04-10T09:40:42;100483.09;;;14.42;38.47
12963;BME280;6546;49.882;8.666;2023-04-10T09:43:19;100484.22;;;14.62;37.74
12963;BME280;6546;49.882;8.666;2023-04-10T09:45:47;100474.97;;;14.75;38.04
12963;BME280;6546;49.882;8.666;2023-04-10T09:48:14;100476.59;;;14.90;36.86
12963;BME280;6546;49.882;8.666;2023-04-10T09:50:40;100471.31;;;14.98;35.85
12963;BME280;6546;49.882;8.666;2023-04-10T09:53:08;100460.22;;;14.96;35.88
12963;BME280;6546;49.882;8.666;2023-04-10T09:55:35;100455.63;;;14.84;36.26
12963;BME280;6546;49.882;8.666;2023-04-10T09:58:03;100452.22;;;14.83;36.30
12963;BME280;6546;49.882;8.666;2023-04-10T10:00:32;100450.44;;;14.98;36.72
12963;BME280;6546;49.882;8.666;2023-04-10T10:03:04;100450.03;;;15.16;35.45
12963;BME280;6546;49.882;8.666;2023-04-10T10:05:35;100440.41;;;15.31;36.52
12963;BME280;6546;49.882;8.666;2023-04-10T10:08:09;100443.50;;;15.41;34.72
12963;BME280;6546;49.882;8.666;2023-04-10T10:10:38;100428.78;;;15.48;34.48
12963;BME280;6546;49.882;8.666;2023-04-10T10:13:07;100433.81;;;15.50;33.70
12963;BME280;6546;49.882;8.666;2023-04-10T10:15:43;100425.00;;;15.51;33.83
12963;BME280;6546;49.882;8.666;2023-04-10T10:18:21;100428.88;;;15.40;36.15
12963;BME280;6546;49.882;8.666;2023-04-10T10:20:51;100423.28;;;15.43;35.13
12963;BME280;6546;49.882;8.666;2023-04-10T10:23:18;100414.59;;;15.57;34.57
12963;BME280;6546;49.882;8.666;2023-04-10T10:25:45;100411.72;;;15.67;32.33
12963;BME280;6546;49.882;8.666;2023-04-10T10:28:13;100410.38;;;15.77;34.10
12963;BME280;6546;49.882;8.666;2023-04-10T10:30:44;100415.72;;;15.91;32.05
12963;BME280;6546;49.882;8.666;2023-04-10T10:33:12;100409.75;;;15.97;30.86
12963;BME280;6546;49.882;8.666;2023-04-10T10:35:42;100405.00;;;16.07;31.62
12963;BME280;6546;49.882;8.666;2023-04-10T10:38:14;100402.06;;;16.16;30.23
12963;BME280;6546;49.882;8.666;2023-04-10T10:40:45;100390.53;;;16.32;32.73
12963;BME280;6546;49.882;8.666;2023-04-10T10:43:18;100393.59;;;16.42;31.41
12963;BME280;6546;49.882;8.666;2023-04-10T10:45:52;100382.97;;;16.44;30.84
12963;BME280;6546;49.882;8.666;2023-04-10T10:48:20;100377.53;;;16.45;30.74
12963;BME280;6546;49.882;8.666;2023-04-10T10:50:53;100368.31;;;16.49;29.77
12963;BME280;6546;49.882;8.666;2023-04-10T10:53:32;100367.72;;;16.47;28.66
12963;BME280;6546;49.882;8.666;2023-04-10T10:56:33;100367.94;;;16.52;28.41
12963;BME280;6546;49.882;8.666;2023-04-10T10:59:00;100363.50;;;16.53;28.69
12963;BME280;6546;49.882;8.666;2023-04-10T11:01:29;100362.16;;;16.57;29.19
12963;BME280;6546;49.882;8.666;2023-04-10T11:03:55;100349.84;;;16.51;29.26
12963;BME280;6546;49.882;8.666;2023-04-10T11:06:48;100351.50;;;16.58;29.64
12963;BME280;6546;49.882;8.666;2023-04-10T11:09:48;100366.03;;;16.67;29.62
12963;BME280;6546;49.882;8.666;2023-04-10T11:12:16;100358.81;;;16.69;28.39
12963;BME280;6546;49.882;8.666;2023-04-10T11:14:43;100352.94;;;16.67;27.45
12963;BME280;6546;49.882;8.666;2023-04-10T11:17:12;100366.69;;;16.76;26.70
12963;BME280;6546;49.882;8.666;2023-04-10T11:19:58;100345.34;;;16.72;28.05
12963;BME280;6546;49.882;8.666;2023-04-10T11:22:25;100336.50;;;16.73;27.86
12963;BME280;6546;49.882;8.666;2023-04-10T11:24:55;100329.25;;;16.75;27.29
12963;BME280;6546;49.882;8.666;2023-04-10T11:27:42;100317.97;;;16.68;25.37
12963;BME280;6546;49.882;8.666;2023-04-10T11:30:33;100311.50;;;16.64;25.82
12963;BME280;6546;49.882;8.666;2023-04-10T11:33:02;100307.50;;;16.68;25.82
12963;BME280;6546;49.882;8.666;2023-04-10T11:35:30;100313.97;;;16.72;25.10
12963;BME280;6546;49.882;8.666;2023-04-10T11:38:11;100308.72;;;16.72;24.75
12963;BME280;6546;49.882;8.666;2023-04-10T11:41:00;100306.13;;;16.72;26.02
12963;BME280;6546;49.882;8.666;2023-04-10T11:43:29;100301.13;;;16.84;26.61
12963;BME280;6546;49.882;8.666;2023-04-10T11:46:00;100306.38;;;16.91;26.68
12963;BME280;6546;49.882;8.666;2023-04-10T11:48:29;100293.31;;;16.97;26.30
12963;BME280;6546;49.882;8.666;2023-04-10T11:50:56;100296.75;;;17.04;26.66
12963;BME280;6546;49.882;8.666;2023-04-10T11:53:24;100293.75;;;17.07;25.29
12963;BME280;6546;49.882;8.666;2023-04-10T11:55:51;100285.06;;;17.07;26.20
12963;BME280;6546;49.882;8.666;2023-04-10T11:58:21;100281.06;;;17.04;26.56
12963;BME280;6546;49.882;8.666;2023-04-10T12:00:55;100279.41;;;16.97;26.85
12963;BME280;6546;49.882;8.666;2023-04-10T12:03:34;100269.16;;;16.95;26.56
12963;BME280;6546;49.882;8.666;2023-04-10T12:06:02;100261.72;;;16.99;27.38
12963;BME280;6546;49.882;8.666;2023-04-10T12:08:30;100260.53;;;17.14;27.87
12963;BME280;6546;49.882;8.666;2023-04-10T12:10:57;100266.78;;;17.20;28.84
12963;BME280;6546;49.882;8.666;2023-04-10T12:13:24;100262.56;;;17.25;29.02
12963;BME280;6546;49.882;8.666;2023-04-10T12:15:51;100260.97;;;17.31;26.82
12963;BME280;6546;49.882;8.666;2023-04-10T12:18:18;100258.75;;;17.28;25.37
12963;BME280;6546;49.882;8.666;2023-04-10T12:20:46;100251.69;;;17.15;25.45
12963;BME280;6546;49.882;8.666;2023-04-10T12:23:13;100242.63;;;17.18;26.61
12963;BME280;6546;49.882;8.666;2023-04-10T12:25:40;100236.19;;;17.14;26.10
12963;BME280;6546;49.882;8.666;2023-04-10T12:28:07;100231.16;;;17.06;26.89
12963;BME280;6546;49.882;8.666;2023-04-10T12:30:33;100239.59;;;17.08;27.61
12963;BME280;6546;49.882;8.666;2023-04-10T12:33:00;100240.03;;;17.18;27.95
12963;BME280;6546;49.882;8.666;2023-04-10T12:35:39;100233.75;;;17.25;27.10
12963;BME280;6546;49.882;8.666;2023-04-10T12:38:08;100237.41;;;17.31;27.18
12963;BME280;6546;49.882;8.666;2023-04-10T12:40:34;100237.19;;;17.32;26.57
12963;BME280;6546;49.882;8.666;2023-04-10T12:43:02;100224.31;;;17.38;28.87
12963;BME280;6546;49.882;8.666;2023-04-10T12:45:42;100224.50;;;17.49;26.50
12963;BME280;6546;49.882;8.666;2023-04-10T12:48:08;100224.34;;;17.57;28.10
12963;BME280;6546;49.882;8.666;2023-04-10T12:50:45;100217.66;;;17.61;27.29
12963;BME280;6546;49.882;8.666;2023-04-10T12:53:13;100208.22;;;17.60;27.91
12963;BME280;6546;49.882;8.666;2023-04-10T12:55:40;100206.00;;;17.57;27.35
12963;BME280;6546;49.882;8.666;2023-04-10T12:58:16;100212.25;;;17.56;27.12
12963;BME280;6546;49.882;8.666;2023-04-10T13:00:44;100209.78;;;17.55;26.93
12963;BME280;6546;49.882;8.666;2023-04-10T13:03:11;100210.41;;;17.50;26.98
12963;BME280;6546;49.882;8.666;2023-04-10T13:05:38;100193.91;;;17.50;26.96
12963;BME280;6546;49.882;8.666;2023-04-10T13:08:05;100195.31;;;17.46;25.93
12963;BME280;6546;49.882;8.666;2023-04-10T13:10:33;100184.84;;;17.46;27.20
12963;BME280;6546;49.882;8.666;2023-04-10T13:13:01;100188.28;;;17.40;27.56
12963;BME280;6546;49.882;8.666;2023-04-10T13:15:28;100184.44;;;17.42;28.09